Terminal Aerodrome Forecast
Issued by NWS

Home | Current Version | Previous Version | Text Only | Print | Product List | Glossary Off
Versions: 1 2 3 4 5 6 7 8 9 10 11 12 13 14 15 16 17 18 19

000
FTUS43 KMPX 080810 AAA
TAFRWF
TAF AMD
KRWF 080810Z 0808/0906 29017G27KT 4SM -SN OVC018
     FM081500 30017G23KT P6SM -SN OVC020
     FM082100 31015G21KT P6SM OVC025=

USA.gov is the U.S. government's official web portal to all federal, state and local government web resources and services.